CAL7 KLAX-RCTP
Flight info
| Callsign | CAL7 |
|---|---|
| Flight time | N/A |
| Altitude | 30000 |
| Route | SUMMR2 MCKEY DCT LIBBO DCT BRINY DCT BOARS DCT AMAKR DCT LINUZ DCT MITOH DCT 43N130W 49N140W/N0488F320 54N150W 57N160W DCT OGGOE DCT NULUK/N0494F330 R220 NANDY/N0496F340 R220 NRKEY/N0492F350 R220 NANNO/N0483F340 OTR1 NOSLY/N0481F360 OTR1 OBE DCT MKE DCT HWE Y12 TAPPI Z16 GNITS Z162 KAMSA L512 TENAS A586 PSN Y572 CJU Z82 PANSI Y711 MUGUS Y742 SALMI B576 BAKER BAKER1A |
| Aircraft | B77W/H-SDE1E2E3FGHIJ2J3J4J5M1RWXY/LB1D1 |
Departure
| Time | 2026-04-25 10:38 |
|---|---|
| Airport | Los Angeles International Airport (KLAX) |
Arrival
| Time | N/A |
|---|---|
| Airport | Taiwan Taoyuan International Airport (RCTP) |
| Time | Latitude | Longitude | Altitude | Speed | Heading |
|---|---|---|---|---|---|
| 2026-04-25 09:54 | 33.94024 | -118.40927 | 131 ft | 0 kts | 263° |
| 2026-04-25 10:16 | 33.94025 | -118.40920 | 125 ft | 2 kts | 261° |
| 2026-04-25 10:16 | 33.94027 | -118.40900 | 125 ft | 2 kts | 264° |
| 2026-04-25 10:16 | 33.94029 | -118.40881 | 125 ft | 2 kts | 264° |
| 2026-04-25 10:16 | 33.94030 | -118.40861 | 125 ft | 2 kts | 264° |
| 2026-04-25 10:17 | 33.94035 | -118.40842 | 125 ft | 2 kts | 226° |
| 2026-04-25 10:17 | 33.94048 | -118.40831 | 125 ft | 2 kts | 195° |
| 2026-04-25 10:17 | 33.94065 | -118.40828 | 125 ft | 2 kts | 173° |
| 2026-04-25 10:17 | 33.94077 | -118.40830 | 125 ft | 1 kts | 172° |
| 2026-04-25 10:18 | 33.94078 | -118.40830 | 125 ft | 0 kts | 173° |
| 2026-04-25 10:24 | 33.94077 | -118.40830 | 130 ft | 0 kts | 173° |
| 2026-04-25 10:25 | 33.94059 | -118.40828 | 127 ft | 4 kts | 173° |
| 2026-04-25 10:25 | 33.94032 | -118.40824 | 128 ft | 4 kts | 173° |
| 2026-04-25 10:25 | 33.94005 | -118.40820 | 127 ft | 4 kts | 173° |
| 2026-04-25 10:26 | 33.93977 | -118.40816 | 127 ft | 5 kts | 173° |
| 2026-04-25 10:26 | 33.93937 | -118.40810 | 127 ft | 7 kts | 173° |
| 2026-04-25 10:26 | 33.93889 | -118.40827 | 126 ft | 8 kts | 228° |
| 2026-04-25 10:26 | 33.93869 | -118.40895 | 126 ft | 9 kts | 260° |
| 2026-04-25 10:27 | 33.93861 | -118.40969 | 127 ft | 9 kts | 263° |
| 2026-04-25 10:27 | 33.93854 | -118.41044 | 128 ft | 9 kts | 263° |
| 2026-04-25 10:27 | 33.93846 | -118.41123 | 130 ft | 10 kts | 263° |
| 2026-04-25 10:27 | 33.93838 | -118.41209 | 126 ft | 11 kts | 263° |
| 2026-04-25 10:28 | 33.93828 | -118.41302 | 127 ft | 12 kts | 262° |
| 2026-04-25 10:28 | 33.93818 | -118.41400 | 128 ft | 12 kts | 263° |
| 2026-04-25 10:28 | 33.93807 | -118.41498 | 128 ft | 12 kts | 263° |
| 2026-04-25 10:28 | 33.93798 | -118.41596 | 127 ft | 11 kts | 263° |
| 2026-04-25 10:29 | 33.93810 | -118.41685 | 126 ft | 11 kts | 318° |
| 2026-04-25 10:29 | 33.93889 | -118.41707 | 128 ft | 12 kts | 354° |
| 2026-04-25 10:29 | 33.93975 | -118.41718 | 128 ft | 13 kts | 353° |
| 2026-04-25 10:29 | 33.94065 | -118.41733 | 127 ft | 13 kts | 352° |
| 2026-04-25 10:30 | 33.94160 | -118.41748 | 128 ft | 14 kts | 353° |
| 2026-04-25 10:30 | 33.94223 | -118.41756 | 128 ft | 14 kts | 354° |
| 2026-04-25 10:30 | 33.94352 | -118.41774 | 126 ft | 14 kts | 353° |
| 2026-04-25 10:30 | 33.94448 | -118.41788 | 128 ft | 14 kts | 353° |
| 2026-04-25 10:31 | 33.94544 | -118.41803 | 128 ft | 14 kts | 353° |
| 2026-04-25 10:31 | 33.94639 | -118.41817 | 127 ft | 14 kts | 353° |
| 2026-04-25 10:31 | 33.94724 | -118.41791 | 127 ft | 14 kts | 59° |
| 2026-04-25 10:31 | 33.94741 | -118.41676 | 130 ft | 14 kts | 83° |
| 2026-04-25 10:32 | 33.94753 | -118.41559 | 129 ft | 14 kts | 83° |
| 2026-04-25 10:32 | 33.94765 | -118.41443 | 127 ft | 14 kts | 80° |
| 2026-04-25 10:32 | 33.94791 | -118.41330 | 127 ft | 14 kts | 81° |
| 2026-04-25 10:32 | 33.94802 | -118.41214 | 126 ft | 14 kts | 83° |
| 2026-04-25 10:33 | 33.94814 | -118.41097 | 129 ft | 14 kts | 83° |
| 2026-04-25 10:33 | 33.94826 | -118.40981 | 127 ft | 14 kts | 83° |
| 2026-04-25 10:33 | 33.94838 | -118.40866 | 130 ft | 14 kts | 83° |
| 2026-04-25 10:33 | 33.94849 | -118.40750 | 128 ft | 14 kts | 83° |
| 2026-04-25 10:34 | 33.94861 | -118.40633 | 130 ft | 14 kts | 83° |
| 2026-04-25 10:34 | 33.94873 | -118.40517 | 126 ft | 14 kts | 83° |
| 2026-04-25 10:34 | 33.94885 | -118.40401 | 129 ft | 14 kts | 83° |
| 2026-04-25 10:34 | 33.94897 | -118.40284 | 128 ft | 14 kts | 83° |
| 2026-04-25 10:35 | 33.94909 | -118.40168 | 129 ft | 14 kts | 83° |
| 2026-04-25 10:35 | 33.94923 | -118.40090 | 126 ft | 9 kts | 61° |
| 2026-04-25 10:35 | 33.94981 | -118.40066 | 127 ft | 9 kts | 351° |
| 2026-04-25 10:35 | 33.95021 | -118.40120 | 127 ft | 9 kts | 282° |
| 2026-04-25 10:36 | 33.95019 | -118.40184 | 125 ft | 0 kts | 262° |
| 2026-04-25 10:37 | 33.95019 | -118.40187 | 125 ft | 1 kts | 262° |
| 2026-04-25 10:37 | 33.95013 | -118.40237 | 127 ft | 21 kts | 262° |
| 2026-04-25 10:37 | 33.94959 | -118.40753 | 126 ft | 103 kts | 263° |
| 2026-04-25 10:37 | 33.94839 | -118.41912 | 130 ft | 178 kts | 263° |
| 2026-04-25 10:38 | 33.94671 | -118.43571 | 524 ft | 207 kts | 262° |
| 2026-04-25 10:38 | 33.94422 | -118.45291 | 1503 ft | 210 kts | 258° |
| 2026-04-25 10:38 | 33.94233 | -118.47001 | 2325 ft | 203 kts | 266° |
| 2026-04-25 10:38 | 33.94191 | -118.48758 | 2468 ft | 218 kts | 268° |
| 2026-04-25 10:39 | 33.94172 | -118.50637 | 2675 ft | 229 kts | 270° |
| 2026-04-25 10:39 | 33.94104 | -118.52584 | 2989 ft | 236 kts | 264° |
| 2026-04-25 10:39 | 33.93951 | -118.54540 | 3422 ft | 239 kts | 264° |
| 2026-04-25 10:39 | 33.93790 | -118.56533 | 3896 ft | 242 kts | 264° |
| 2026-04-25 10:40 | 33.93625 | -118.58583 | 4321 ft | 250 kts | 264° |
| 2026-04-25 10:40 | 33.93455 | -118.60739 | 4613 ft | 265 kts | 264° |
| 2026-04-25 10:40 | 33.93278 | -118.62972 | 5112 ft | 271 kts | 264° |
| 2026-04-25 10:40 | 33.93159 | -118.64483 | 5481 ft | 275 kts | 265° |
| 2026-04-25 10:41 | 33.92919 | -118.67567 | 6352 ft | 277 kts | 265° |
| 2026-04-25 10:41 | 33.92743 | -118.69845 | 6963 ft | 278 kts | 265° |
| 2026-04-25 10:41 | 33.92562 | -118.72173 | 7618 ft | 279 kts | 265° |
| 2026-04-25 10:41 | 33.92382 | -118.74494 | 8262 ft | 279 kts | 264° |
| 2026-04-25 10:42 | 33.92200 | -118.76829 | 8888 ft | 280 kts | 264° |
| 2026-04-25 10:42 | 33.92017 | -118.79172 | 9509 ft | 282 kts | 264° |
| 2026-04-25 10:42 | 33.91832 | -118.81526 | 10102 ft | 283 kts | 264° |
| 2026-04-25 10:42 | 33.91662 | -118.83930 | 10394 ft | 297 kts | 268° |
| 2026-04-25 10:43 | 33.91692 | -118.86492 | 10540 ft | 315 kts | 272° |
| 2026-04-25 10:43 | 33.91815 | -118.89207 | 10690 ft | 334 kts | 272° |
| 2026-04-25 10:43 | 33.91939 | -118.92035 | 10930 ft | 349 kts | 272° |
| 2026-04-25 10:43 | 33.92043 | -118.94992 | 11394 ft | 357 kts | 271° |
| 2026-04-25 10:44 | 33.92134 | -118.98000 | 11980 ft | 362 kts | 271° |
| 2026-04-25 10:44 | 33.92336 | -119.01014 | 12572 ft | 363 kts | 281° |
| 2026-04-25 10:44 | 33.93265 | -119.03861 | 13099 ft | 370 kts | 298° |
| 2026-04-25 10:44 | 33.94658 | -119.06489 | 13685 ft | 374 kts | 300° |
| 2026-04-25 10:45 | 33.96072 | -119.09137 | 14259 ft | 377 kts | 300° |
| 2026-04-25 10:45 | 33.97475 | -119.11810 | 14876 ft | 379 kts | 299° |
| 2026-04-25 10:45 | 33.98856 | -119.14474 | 15491 ft | 381 kts | 298° |
| 2026-04-25 10:45 | 34.00259 | -119.17186 | 16089 ft | 381 kts | 300° |
| 2026-04-25 10:46 | 34.01983 | -119.19663 | 16507 ft | 394 kts | 317° |
| 2026-04-25 10:46 | 34.04240 | -119.21578 | 16907 ft | 400 kts | 321° |
| 2026-04-25 10:46 | 34.06547 | -119.23479 | 17422 ft | 404 kts | 321° |
| 2026-04-25 10:46 | 34.08855 | -119.25418 | 18038 ft | 405 kts | 320° |
| 2026-04-25 10:47 | 34.11164 | -119.27381 | 18580 ft | 407 kts | 320° |
| 2026-04-25 10:47 | 34.13481 | -119.29366 | 19072 ft | 410 kts | 320° |
| 2026-04-25 10:47 | 34.15780 | -119.31344 | 19524 ft | 413 kts | 320° |
| 2026-04-25 10:47 | 34.18129 | -119.33368 | 19989 ft | 416 kts | 319° |
| 2026-04-25 10:48 | 34.20493 | -119.35409 | 20453 ft | 419 kts | 319° |
| 2026-04-25 10:48 | 34.22878 | -119.37468 | 20929 ft | 422 kts | 319° |
| 2026-04-25 10:48 | 34.25278 | -119.39540 | 21390 ft | 425 kts | 319° |
| 2026-04-25 10:48 | 34.27689 | -119.41624 | 21838 ft | 428 kts | 319° |
| 2026-04-25 10:49 | 34.30123 | -119.43729 | 22285 ft | 431 kts | 319° |
| 2026-04-25 10:49 | 34.31744 | -119.45133 | 22575 ft | 433 kts | 319° |
| 2026-04-25 10:49 | 34.35003 | -119.47955 | 23127 ft | 437 kts | 319° |
| 2026-04-25 10:49 | 34.37483 | -119.50104 | 23546 ft | 440 kts | 319° |
| 2026-04-25 10:50 | 34.39980 | -119.52269 | 23914 ft | 443 kts | 319° |
| 2026-04-25 10:50 | 34.42340 | -119.54621 | 24289 ft | 436 kts | 309° |
| 2026-04-25 10:50 | 34.44354 | -119.57349 | 24679 ft | 434 kts | 305° |
| 2026-04-25 10:50 | 34.46278 | -119.60170 | 25060 ft | 435 kts | 304° |
| 2026-04-25 10:51 | 34.48192 | -119.63023 | 25462 ft | 437 kts | 304° |
| 2026-04-25 10:51 | 34.50118 | -119.65874 | 25850 ft | 438 kts | 304° |
| 2026-04-25 10:51 | 34.52043 | -119.68686 | 26204 ft | 440 kts | 304° |
| 2026-04-25 10:51 | 34.54015 | -119.71535 | 26560 ft | 442 kts | 304° |
| 2026-04-25 10:52 | 34.56005 | -119.74390 | 26920 ft | 443 kts | 305° |
| 2026-04-25 10:52 | 34.58000 | -119.77237 | 27281 ft | 445 kts | 305° |
| 2026-04-25 10:52 | 34.60012 | -119.80103 | 27629 ft | 446 kts | 305° |
| 2026-04-25 10:52 | 34.62030 | -119.82978 | 27963 ft | 448 kts | 305° |
| 2026-04-25 10:53 | 34.64055 | -119.85867 | 28302 ft | 449 kts | 305° |
| 2026-04-25 10:53 | 34.66085 | -119.88764 | 28611 ft | 451 kts | 304° |
| 2026-04-25 10:53 | 34.68121 | -119.91674 | 28893 ft | 453 kts | 304° |
| 2026-04-25 10:53 | 34.70132 | -119.94552 | 29159 ft | 455 kts | 304° |
| 2026-04-25 10:54 | 34.72182 | -119.97488 | 29446 ft | 456 kts | 304° |
| 2026-04-25 10:54 | 34.73569 | -119.99475 | 29639 ft | 457 kts | 304° |
| 2026-04-25 10:54 | 34.76295 | -120.03386 | 29892 ft | 460 kts | 304° |
| 2026-04-25 10:55 | 34.80440 | -120.09338 | 29973 ft | 459 kts | 304° |
| 2026-04-25 10:55 | 34.84541 | -120.15233 | 29960 ft | 455 kts | 304° |
| 2026-04-25 10:56 | 34.88594 | -120.21076 | 29972 ft | 454 kts | 304° |
| 2026-04-25 10:56 | 34.92670 | -120.26962 | 29983 ft | 454 kts | 304° |
| 2026-04-25 10:57 | 34.96749 | -120.32864 | 29965 ft | 455 kts | 304° |
| 2026-04-25 10:57 | 35.00829 | -120.38774 | 29973 ft | 457 kts | 304° |
| 2026-04-25 10:58 | 35.04898 | -120.44678 | 29980 ft | 458 kts | 304° |
| 2026-04-25 10:58 | 35.09000 | -120.50641 | 29972 ft | 459 kts | 304° |
| 2026-04-25 10:59 | 35.13103 | -120.56615 | 29976 ft | 459 kts | 304° |
| 2026-04-25 10:59 | 35.17206 | -120.62600 | 29975 ft | 459 kts | 304° |
| 2026-04-25 11:00 | 35.21306 | -120.68590 | 29979 ft | 460 kts | 304° |
| 2026-04-25 11:00 | 35.25378 | -120.74549 | 29974 ft | 459 kts | 304° |
| 2026-04-25 11:01 | 35.29473 | -120.80557 | 29974 ft | 460 kts | 304° |
| 2026-04-25 11:01 | 35.33571 | -120.86575 | 29972 ft | 460 kts | 304° |
| 2026-04-25 11:02 | 35.37674 | -120.92612 | 29969 ft | 461 kts | 304° |
| 2026-04-25 11:02 | 35.41785 | -120.98675 | 30011 ft | 465 kts | 305° |
| 2026-04-25 11:03 | 35.45930 | -121.04795 | 29994 ft | 474 kts | 306° |
| 2026-04-25 11:03 | 35.50180 | -121.11046 | 29978 ft | 477 kts | 306° |
| 2026-04-25 11:04 | 35.54495 | -121.17238 | 29969 ft | 477 kts | 306° |
| 2026-04-25 11:04 | 35.58813 | -121.23420 | 29967 ft | 476 kts | 306° |
| 2026-04-25 11:05 | 35.63109 | -121.29604 | 29964 ft | 475 kts | 306° |
| 2026-04-25 11:05 | 35.67358 | -121.35745 | 29964 ft | 474 kts | 306° |
| 2026-04-25 11:06 | 35.71628 | -121.41929 | 29968 ft | 474 kts | 306° |
| 2026-04-25 11:06 | 35.75894 | -121.48118 | 29962 ft | 474 kts | 306° |
| 2026-04-25 11:07 | 35.80149 | -121.54300 | 29967 ft | 473 kts | 306° |
| 2026-04-25 11:07 | 35.84374 | -121.60451 | 29964 ft | 473 kts | 306° |
| 2026-04-25 11:08 | 35.88621 | -121.66646 | 29964 ft | 473 kts | 306° |
| 2026-04-25 11:08 | 35.92865 | -121.72846 | 29963 ft | 473 kts | 305° |
| 2026-04-25 11:09 | 35.97123 | -121.79025 | 29962 ft | 474 kts | 308° |
| 2026-04-25 11:09 | 36.02142 | -121.84331 | 29971 ft | 482 kts | 320° |
| 2026-04-25 11:10 | 36.08009 | -121.88477 | 29967 ft | 489 kts | 328° |
| 2026-04-25 11:10 | 36.14125 | -121.92215 | 29965 ft | 490 kts | 328° |
| 2026-04-25 11:11 | 36.20240 | -121.95969 | 29976 ft | 491 kts | 328° |
| 2026-04-25 11:11 | 36.26310 | -121.99755 | 29974 ft | 492 kts | 328° |
| 2026-04-25 11:12 | 36.32412 | -122.03592 | 29981 ft | 492 kts | 327° |
| 2026-04-25 11:12 | 36.38524 | -122.07444 | 29984 ft | 493 kts | 327° |
| 2026-04-25 11:13 | 36.43609 | -122.10652 | 29983 ft | 494 kts | 327° |
| 2026-04-25 11:13 | 36.49734 | -122.14522 | 29983 ft | 494 kts | 327° |
| 2026-04-25 11:14 | 36.56853 | -122.19027 | 29982 ft | 494 kts | 327° |
| 2026-04-25 11:14 | 36.62980 | -122.22911 | 29984 ft | 494 kts | 327° |
| 2026-04-25 11:15 | 36.68057 | -122.26136 | 29984 ft | 493 kts | 327° |
| 2026-04-25 11:15 | 36.75143 | -122.30643 | 29982 ft | 491 kts | 327° |
| 2026-04-25 11:16 | 36.84243 | -122.36447 | 29978 ft | 488 kts | 326° |
| 2026-04-25 11:16 | 36.89257 | -122.39652 | 29973 ft | 487 kts | 326° |
| 2026-04-25 11:17 | 36.95272 | -122.43503 | 29962 ft | 485 kts | 326° |
| 2026-04-25 11:17 | 37.01280 | -122.47357 | 29959 ft | 485 kts | 326° |
| 2026-04-25 11:18 | 37.08247 | -122.51835 | 29962 ft | 485 kts | 326° |
| 2026-04-25 11:18 | 37.13280 | -122.55075 | 29964 ft | 485 kts | 326° |
| 2026-04-25 11:19 | 37.19252 | -122.58927 | 29960 ft | 486 kts | 326° |
| 2026-04-25 11:19 | 37.25274 | -122.62817 | 29959 ft | 487 kts | 326° |
| 2026-04-25 11:20 | 37.31333 | -122.66664 | 29956 ft | 491 kts | 329° |
| 2026-04-25 11:20 | 37.37660 | -122.69867 | 29964 ft | 494 kts | 332° |
| 2026-04-25 11:21 | 37.43874 | -122.72901 | 29954 ft | 494 kts | 332° |
| 2026-04-25 11:21 | 37.50274 | -122.76063 | 29956 ft | 494 kts | 332° |
| 2026-04-25 11:22 | 37.56653 | -122.79253 | 29956 ft | 493 kts | 332° |
| 2026-04-25 11:22 | 37.63021 | -122.82452 | 29951 ft | 492 kts | 332° |
| 2026-04-25 11:23 | 37.69371 | -122.85648 | 29946 ft | 491 kts | 332° |
| 2026-04-25 11:23 | 37.75664 | -122.88817 | 29948 ft | 489 kts | 332° |
| 2026-04-25 11:24 | 37.81984 | -122.92006 | 29938 ft | 488 kts | 332° |
| 2026-04-25 11:24 | 37.88283 | -122.95191 | 29942 ft | 487 kts | 332° |
| 2026-04-25 11:25 | 37.94576 | -122.98379 | 29939 ft | 487 kts | 332° |
| 2026-04-25 11:25 | 38.00820 | -123.01548 | 29943 ft | 487 kts | 332° |
| 2026-04-25 11:26 | 38.07105 | -123.04744 | 29935 ft | 487 kts | 332° |
| 2026-04-25 11:26 | 38.13389 | -123.07945 | 29934 ft | 487 kts | 332° |
| 2026-04-25 11:27 | 38.19679 | -123.11155 | 29935 ft | 488 kts | 332° |
| 2026-04-25 11:27 | 38.24749 | -123.14196 | 29925 ft | 481 kts | 323° |
| 2026-04-25 11:28 | 38.31315 | -123.19466 | 29929 ft | 481 kts | 321° |
| 2026-04-25 11:28 | 38.36970 | -123.24060 | 29929 ft | 483 kts | 322° |
| 2026-04-25 11:29 | 38.42673 | -123.28649 | 29927 ft | 486 kts | 322° |
| 2026-04-25 11:29 | 38.48409 | -123.33247 | 29925 ft | 488 kts | 322° |
| 2026-04-25 11:30 | 38.54138 | -123.37843 | 29935 ft | 490 kts | 322° |
| 2026-04-25 11:30 | 38.59909 | -123.42485 | 29930 ft | 491 kts | 322° |
| 2026-04-25 11:31 | 38.65687 | -123.47143 | 29939 ft | 491 kts | 322° |
| 2026-04-25 11:31 | 38.71462 | -123.51808 | 29929 ft | 490 kts | 322° |
| 2026-04-25 11:32 | 38.77189 | -123.56443 | 29930 ft | 490 kts | 322° |
| 2026-04-25 11:32 | 38.82936 | -123.61104 | 29929 ft | 489 kts | 322° |
| 2026-04-25 11:33 | 38.88679 | -123.65772 | 29931 ft | 488 kts | 322° |
| 2026-04-25 11:33 | 38.94404 | -123.70433 | 29935 ft | 486 kts | 322° |
| 2026-04-25 11:34 | 39.00096 | -123.75105 | 29924 ft | 484 kts | 320° |
| 2026-04-25 11:34 | 39.05416 | -123.80219 | 29938 ft | 479 kts | 317° |
| 2026-04-25 11:35 | 39.10676 | -123.85469 | 29930 ft | 478 kts | 317° |
| 2026-04-25 11:35 | 39.15938 | -123.90713 | 29922 ft | 478 kts | 317° |
| 2026-04-25 11:36 | 39.21211 | -123.95950 | 29930 ft | 478 kts | 317° |
| 2026-04-25 11:36 | 39.26449 | -124.01148 | 29933 ft | 479 kts | 317° |
| 2026-04-25 11:37 | 39.31730 | -124.06399 | 29931 ft | 480 kts | 317° |
| 2026-04-25 11:37 | 39.37019 | -124.11668 | 29938 ft | 481 kts | 318° |
| 2026-04-25 11:38 | 39.42321 | -124.16961 | 29936 ft | 482 kts | 318° |
| 2026-04-25 11:38 | 39.47589 | -124.22231 | 29940 ft | 483 kts | 318° |
| 2026-04-25 11:39 | 39.52902 | -124.27556 | 29935 ft | 483 kts | 319° |
| 2026-04-25 11:39 | 39.58219 | -124.32896 | 29932 ft | 484 kts | 319° |
| 2026-04-25 11:40 | 39.63539 | -124.38249 | 29932 ft | 484 kts | 319° |
| 2026-04-25 11:40 | 39.68856 | -124.43610 | 29930 ft | 484 kts | 319° |
| 2026-04-25 11:41 | 39.74134 | -124.48943 | 29931 ft | 484 kts | 319° |
| 2026-04-25 11:41 | 39.79440 | -124.54315 | 29934 ft | 484 kts | 319° |
| 2026-04-25 11:42 | 39.84753 | -124.59704 | 29936 ft | 484 kts | 320° |
| 2026-04-25 11:42 | 39.90057 | -124.65096 | 29933 ft | 484 kts | 320° |
| 2026-04-25 11:43 | 39.95364 | -124.70501 | 29932 ft | 484 kts | 320° |
| 2026-04-25 11:43 | 40.00631 | -124.75877 | 29933 ft | 484 kts | 320° |
| 2026-04-25 11:44 | 40.05937 | -124.81303 | 29935 ft | 485 kts | 320° |
| 2026-04-25 11:44 | 40.11246 | -124.86744 | 29937 ft | 485 kts | 320° |
| 2026-04-25 11:45 | 40.16553 | -124.92193 | 29930 ft | 485 kts | 321° |
| 2026-04-25 11:45 | 40.21825 | -124.97617 | 29927 ft | 485 kts | 321° |
| 2026-04-25 11:46 | 40.27127 | -125.03084 | 29927 ft | 485 kts | 321° |
| 2026-04-25 11:46 | 40.32428 | -125.08560 | 29927 ft | 485 kts | 321° |
| 2026-04-25 11:47 | 40.37726 | -125.14045 | 29933 ft | 485 kts | 321° |
| 2026-04-25 11:47 | 40.43021 | -125.19539 | 29930 ft | 485 kts | 322° |
| 2026-04-25 11:48 | 40.48280 | -125.25006 | 29930 ft | 486 kts | 322° |
| 2026-04-25 11:48 | 40.53576 | -125.30521 | 29933 ft | 486 kts | 322° |
| 2026-04-25 11:49 | 40.58866 | -125.36044 | 29930 ft | 486 kts | 323° |
| 2026-04-25 11:49 | 40.64154 | -125.41577 | 29931 ft | 485 kts | 323° |
| 2026-04-25 11:50 | 40.69405 | -125.47081 | 29931 ft | 485 kts | 323° |
| 2026-04-25 11:50 | 40.74680 | -125.52621 | 29927 ft | 485 kts | 323° |
| 2026-04-25 11:51 | 40.79943 | -125.58160 | 29939 ft | 484 kts | 323° |
| 2026-04-25 11:51 | 40.85196 | -125.63703 | 29934 ft | 482 kts | 323° |
| 2026-04-25 11:52 | 40.90427 | -125.69231 | 29934 ft | 481 kts | 323° |
| 2026-04-25 11:52 | 40.95611 | -125.74721 | 29935 ft | 480 kts | 323° |
| 2026-04-25 11:53 | 41.00808 | -125.80238 | 29943 ft | 478 kts | 323° |
| 2026-04-25 11:53 | 41.05990 | -125.85750 | 29942 ft | 477 kts | 323° |
| 2026-04-25 11:54 | 41.11159 | -125.91259 | 29944 ft | 476 kts | 323° |
| 2026-04-25 11:55 | 41.18857 | -125.99488 | 29954 ft | 475 kts | 323° |
| 2026-04-25 11:55 | 41.23998 | -126.04996 | 29953 ft | 475 kts | 323° |
| 2026-04-25 11:56 | 41.29133 | -126.10508 | 29954 ft | 474 kts | 323° |
| 2026-04-25 11:56 | 41.34256 | -126.16019 | 29958 ft | 474 kts | 323° |
| 2026-04-25 11:57 | 41.39345 | -126.21506 | 29964 ft | 474 kts | 323° |
| 2026-04-25 11:57 | 41.44465 | -126.27038 | 29965 ft | 474 kts | 323° |
| 2026-04-25 11:58 | 41.49578 | -126.32574 | 29965 ft | 474 kts | 323° |
| 2026-04-25 11:58 | 41.54687 | -126.38118 | 29968 ft | 473 kts | 323° |
| 2026-04-25 11:59 | 41.59759 | -126.43632 | 29978 ft | 473 kts | 322° |
| 2026-04-25 11:59 | 41.64594 | -126.49596 | 29965 ft | 475 kts | 313° |
| 2026-04-25 12:00 | 41.68461 | -126.56774 | 29977 ft | 478 kts | 301° |
| 2026-04-25 12:00 | 41.70044 | -126.60691 | 29991 ft | 478 kts | 300° |
| 2026-04-25 12:01 | 41.74702 | -126.72447 | 29986 ft | 479 kts | 301° |
| 2026-04-25 12:01 | 41.77871 | -126.80299 | 29992 ft | 479 kts | 301° |
| 2026-04-25 12:02 | 41.82620 | -126.92084 | 29999 ft | 479 kts | 301° |
| 2026-04-25 12:02 | 41.85784 | -126.99963 | 29999 ft | 480 kts | 301° |
| 2026-04-25 12:03 | 41.88920 | -127.07798 | 30001 ft | 480 kts | 300° |
| 2026-04-25 12:03 | 41.92072 | -127.15695 | 30007 ft | 480 kts | 300° |
| 2026-04-25 12:04 | 41.95220 | -127.23600 | 30011 ft | 480 kts | 300° |
| 2026-04-25 12:04 | 41.98362 | -127.31511 | 30013 ft | 480 kts | 300° |
| 2026-04-25 12:05 | 42.01477 | -127.39379 | 30021 ft | 480 kts | 300° |
| 2026-04-25 12:05 | 42.04611 | -127.47313 | 30028 ft | 480 kts | 300° |
| 2026-04-25 12:06 | 42.07736 | -127.55248 | 30028 ft | 480 kts | 300° |
| 2026-04-25 12:06 | 42.10860 | -127.63203 | 30035 ft | 481 kts | 300° |
| 2026-04-25 12:07 | 42.13960 | -127.71116 | 30032 ft | 481 kts | 300° |
| 2026-04-25 12:07 | 42.17076 | -127.79093 | 30034 ft | 481 kts | 300° |
| 2026-04-25 12:08 | 42.20185 | -127.87074 | 30036 ft | 481 kts | 300° |
| 2026-04-25 12:08 | 42.23290 | -127.95065 | 30044 ft | 481 kts | 300° |
| 2026-04-25 12:09 | 42.26370 | -128.03017 | 30047 ft | 481 kts | 300° |
| 2026-04-25 12:09 | 42.29464 | -128.11028 | 30048 ft | 482 kts | 300° |
| 2026-04-25 12:10 | 42.32557 | -128.19053 | 30047 ft | 482 kts | 300° |
| 2026-04-25 12:10 | 42.35648 | -128.27098 | 30049 ft | 482 kts | 300° |
| 2026-04-25 12:11 | 42.38735 | -128.35156 | 30055 ft | 482 kts | 300° |
| 2026-04-25 12:11 | 42.41792 | -128.43158 | 30061 ft | 482 kts | 299° |
| 2026-04-25 12:12 | 42.44370 | -128.49923 | 30057 ft | 482 kts | 299° |
| 2026-04-25 12:12 | 42.47940 | -128.59321 | 30056 ft | 483 kts | 299° |
| 2026-04-25 12:13 | 42.51003 | -128.67407 | 30072 ft | 483 kts | 299° |
| 2026-04-25 12:13 | 42.54044 | -128.75459 | 30068 ft | 483 kts | 299° |
| 2026-04-25 12:14 | 42.57101 | -128.83573 | 30070 ft | 483 kts | 299° |
| 2026-04-25 12:14 | 42.60156 | -128.91707 | 30077 ft | 483 kts | 299° |
| 2026-04-25 12:15 | 42.63201 | -128.99836 | 30073 ft | 483 kts | 299° |
| 2026-04-25 12:15 | 42.66244 | -129.07985 | 30077 ft | 483 kts | 299° |
| 2026-04-25 12:16 | 42.69259 | -129.16083 | 30076 ft | 484 kts | 299° |
| 2026-04-25 12:16 | 42.72290 | -129.24246 | 30085 ft | 484 kts | 299° |
| 2026-04-25 12:17 | 42.75316 | -129.32420 | 30088 ft | 484 kts | 299° |
| 2026-04-25 12:17 | 42.78338 | -129.40604 | 30083 ft | 484 kts | 298° |
| 2026-04-25 12:18 | 42.81337 | -129.48752 | 30095 ft | 484 kts | 298° |
| 2026-04-25 12:18 | 42.84346 | -129.56952 | 30096 ft | 484 kts | 298° |
| 2026-04-25 12:19 | 42.88857 | -129.69286 | 30097 ft | 484 kts | 298° |
| 2026-04-25 12:20 | 42.91852 | -129.77512 | 30101 ft | 485 kts | 298° |
| 2026-04-25 12:20 | 42.94846 | -129.85751 | 30101 ft | 485 kts | 298° |
| 2026-04-25 12:21 | 42.97815 | -129.93942 | 30115 ft | 485 kts | 299° |
| 2026-04-25 12:21 | 43.01402 | -130.01688 | 30124 ft | 481 kts | 309° |
| 2026-04-25 12:22 | 43.05883 | -130.08444 | 30125 ft | 479 kts | 316° |
| 2026-04-25 12:22 | 43.10578 | -130.14940 | 30097 ft | 480 kts | 316° |
| 2026-04-25 12:23 | 43.15226 | -130.21410 | 30110 ft | 480 kts | 316° |
| 2026-04-25 12:23 | 43.19885 | -130.27960 | 30124 ft | 480 kts | 316° |
| 2026-04-25 12:24 | 43.24535 | -130.34539 | 30130 ft | 480 kts | 316° |
| 2026-04-25 12:24 | 43.29182 | -130.41134 | 30127 ft | 480 kts | 316° |
| 2026-04-25 12:25 | 43.33795 | -130.47693 | 30120 ft | 481 kts | 315° |
| 2026-04-25 12:25 | 43.38434 | -130.54304 | 30130 ft | 481 kts | 315° |
| 2026-04-25 12:26 | 43.43068 | -130.60922 | 30129 ft | 481 kts | 315° |
| 2026-04-25 12:26 | 43.47706 | -130.67558 | 30130 ft | 481 kts | 315° |
| 2026-04-25 12:27 | 43.52310 | -130.74163 | 30134 ft | 481 kts | 315° |
| 2026-04-25 12:27 | 43.56940 | -130.80822 | 30132 ft | 481 kts | 315° |
| 2026-04-25 12:28 | 43.61567 | -130.87495 | 30134 ft | 481 kts | 315° |
| 2026-04-25 12:28 | 43.66194 | -130.94181 | 30139 ft | 482 kts | 315° |
| 2026-04-25 12:29 | 43.70819 | -131.00882 | 30141 ft | 482 kts | 315° |
| 2026-04-25 12:29 | 43.75415 | -131.07556 | 30143 ft | 483 kts | 315° |
| 2026-04-25 12:30 | 43.80041 | -131.14288 | 30145 ft | 483 kts | 315° |
| 2026-04-25 12:30 | 43.84673 | -131.21046 | 30149 ft | 484 kts | 315° |
| 2026-04-25 12:31 | 43.89273 | -131.27773 | 30152 ft | 484 kts | 315° |
| 2026-04-25 12:31 | 43.93899 | -131.34557 | 30157 ft | 484 kts | 315° |
| 2026-04-25 12:32 | 43.98528 | -131.41359 | 30156 ft | 485 kts | 315° |
| 2026-04-25 12:32 | 44.03155 | -131.48173 | 30160 ft | 485 kts | 315° |
| 2026-04-25 12:33 | 44.07753 | -131.54964 | 30165 ft | 485 kts | 314° |
| 2026-04-25 12:33 | 44.12371 | -131.61802 | 30161 ft | 485 kts | 314° |
| 2026-04-25 12:34 | 44.16989 | -131.68654 | 30167 ft | 485 kts | 314° |
| 2026-04-25 12:34 | 44.21604 | -131.75520 | 30169 ft | 485 kts | 314° |
| 2026-04-25 12:35 | 44.26217 | -131.82400 | 30172 ft | 485 kts | 314° |
| 2026-04-25 12:35 | 44.30794 | -131.89243 | 30172 ft | 485 kts | 314° |
| 2026-04-25 12:36 | 44.35396 | -131.96141 | 30181 ft | 485 kts | 314° |
| 2026-04-25 12:36 | 44.39994 | -132.03048 | 30178 ft | 485 kts | 314° |
| 2026-04-25 12:37 | 44.44590 | -132.09972 | 30184 ft | 485 kts | 314° |
| 2026-04-25 12:37 | 44.49150 | -132.16857 | 30186 ft | 485 kts | 314° |
| 2026-04-25 12:38 | 44.53734 | -132.23794 | 30192 ft | 485 kts | 314° |
| 2026-04-25 12:38 | 44.58315 | -132.30744 | 30190 ft | 485 kts | 314° |
| 2026-04-25 12:39 | 44.62887 | -132.37700 | 30192 ft | 485 kts | 314° |
| 2026-04-25 12:39 | 44.67427 | -132.44624 | 30202 ft | 485 kts | 314° |
| 2026-04-25 12:40 | 44.71990 | -132.51600 | 30198 ft | 485 kts | 314° |
| 2026-04-25 12:40 | 44.76547 | -132.58583 | 30205 ft | 484 kts | 314° |
| 2026-04-25 12:41 | 44.81100 | -132.65577 | 30207 ft | 484 kts | 314° |
| 2026-04-25 12:41 | 44.85644 | -132.72576 | 30208 ft | 484 kts | 314° |
| 2026-04-25 12:42 | 44.90154 | -132.79542 | 30208 ft | 484 kts | 313° |
| 2026-04-25 12:42 | 44.94684 | -132.86553 | 30216 ft | 484 kts | 313° |
| 2026-04-25 12:43 | 44.99210 | -132.93579 | 30211 ft | 483 kts | 313° |
| 2026-04-25 12:43 | 45.05988 | -133.04133 | 30221 ft | 483 kts | 313° |
| 2026-04-25 12:44 | 45.10472 | -133.11135 | 30227 ft | 483 kts | 313° |
| 2026-04-25 12:45 | 45.17229 | -133.21722 | 30229 ft | 483 kts | 313° |
| 2026-04-25 12:45 | 45.23977 | -133.32335 | 30232 ft | 483 kts | 313° |
| 2026-04-25 12:46 | 45.28471 | -133.39427 | 30233 ft | 483 kts | 313° |
| 2026-04-25 12:46 | 45.32934 | -133.46486 | 30239 ft | 483 kts | 313° |
| 2026-04-25 12:47 | 45.37419 | -133.53600 | 30242 ft | 483 kts | 313° |
| 2026-04-25 12:47 | 45.41902 | -133.60728 | 30242 ft | 483 kts | 313° |
| 2026-04-25 12:48 | 45.46354 | -133.67825 | 30249 ft | 484 kts | 313° |
| 2026-04-25 12:48 | 45.50833 | -133.74983 | 30253 ft | 484 kts | 312° |
| 2026-04-25 12:49 | 45.55305 | -133.82151 | 30249 ft | 484 kts | 312° |
| 2026-04-25 12:49 | 45.59775 | -133.89331 | 30258 ft | 484 kts | 312° |
| 2026-04-25 12:50 | 45.64241 | -133.96525 | 30252 ft | 484 kts | 312° |
| 2026-04-25 12:50 | 45.68675 | -134.03684 | 30260 ft | 484 kts | 312° |
| 2026-04-25 12:51 | 45.73130 | -134.10899 | 30268 ft | 484 kts | 312° |
| 2026-04-25 12:51 | 45.77591 | -134.18140 | 30269 ft | 485 kts | 312° |
| 2026-04-25 12:52 | 45.82046 | -134.25391 | 30268 ft | 485 kts | 312° |
| 2026-04-25 12:52 | 45.86466 | -134.32605 | 30270 ft | 485 kts | 311° |
| 2026-04-25 12:53 | 45.90919 | -134.39891 | 30273 ft | 485 kts | 311° |
| 2026-04-25 12:53 | 45.95370 | -134.47193 | 30278 ft | 486 kts | 311° |
| 2026-04-25 12:54 | 45.99818 | -134.54510 | 30282 ft | 486 kts | 311° |
| 2026-04-25 12:54 | 46.04234 | -134.61792 | 30281 ft | 487 kts | 311° |
| 2026-04-25 12:55 | 46.07961 | -134.67955 | 30287 ft | 487 kts | 311° |
| 2026-04-25 12:55 | 46.13130 | -134.76524 | 30288 ft | 488 kts | 311° |
| 2026-04-25 12:56 | 46.17578 | -134.83919 | 30294 ft | 488 kts | 311° |
| 2026-04-25 12:56 | 46.22021 | -134.91326 | 30294 ft | 488 kts | 311° |
| 2026-04-25 12:57 | 46.26437 | -134.98707 | 30300 ft | 489 kts | 310° |
| 2026-04-25 12:57 | 46.30879 | -135.06153 | 30299 ft | 489 kts | 310° |
| 2026-04-25 12:58 | 46.35315 | -135.13607 | 30310 ft | 489 kts | 310° |
| 2026-04-25 12:58 | 46.39748 | -135.21077 | 30310 ft | 489 kts | 310° |
| 2026-04-25 12:59 | 46.44152 | -135.28519 | 30304 ft | 490 kts | 310° |
| 2026-04-25 12:59 | 46.48581 | -135.36023 | 30309 ft | 490 kts | 310° |
| 2026-04-25 13:00 | 46.51545 | -135.41057 | 30313 ft | 490 kts | 310° |
| 2026-04-25 13:00 | 46.57440 | -135.51097 | 30320 ft | 491 kts | 309° |
| 2026-04-25 13:01 | 46.61869 | -135.58663 | 30315 ft | 492 kts | 309° |
| 2026-04-25 13:01 | 46.66273 | -135.66209 | 30322 ft | 492 kts | 309° |
| 2026-04-25 13:02 | 46.70702 | -135.73815 | 30325 ft | 493 kts | 309° |
| 2026-04-25 13:02 | 46.75140 | -135.81461 | 30324 ft | 494 kts | 309° |
| 2026-04-25 13:03 | 46.79541 | -135.89065 | 30330 ft | 494 kts | 309° |
| 2026-04-25 13:03 | 46.83971 | -135.96738 | 30330 ft | 495 kts | 308° |
| 2026-04-25 13:04 | 46.88403 | -136.04434 | 30336 ft | 495 kts | 308° |
| 2026-04-25 13:04 | 46.92832 | -136.12152 | 30329 ft | 496 kts | 308° |
| 2026-04-25 13:05 | 46.97265 | -136.19897 | 30343 ft | 496 kts | 308° |
| 2026-04-25 13:05 | 47.01665 | -136.27606 | 30353 ft | 497 kts | 308° |
| 2026-04-25 13:06 | 47.06095 | -136.35389 | 30348 ft | 497 kts | 308° |
| 2026-04-25 13:06 | 47.10524 | -136.43193 | 30349 ft | 498 kts | 308° |
| 2026-04-25 13:07 | 47.14949 | -136.51013 | 30350 ft | 498 kts | 308° |
| 2026-04-25 13:07 | 47.19336 | -136.58784 | 30359 ft | 497 kts | 308° |
| 2026-04-25 13:08 | 47.23748 | -136.66628 | 30360 ft | 497 kts | 308° |
| 2026-04-25 13:08 | 47.28151 | -136.74473 | 30360 ft | 497 kts | 307° |
| 2026-04-25 13:09 | 47.32551 | -136.82337 | 30361 ft | 497 kts | 307° |
| 2026-04-25 13:09 | 47.36948 | -136.90219 | 30367 ft | 497 kts | 307° |
| 2026-04-25 13:10 | 47.41311 | -136.98064 | 30369 ft | 498 kts | 307° |
| 2026-04-25 13:10 | 47.45697 | -137.05973 | 30371 ft | 498 kts | 307° |
| 2026-04-25 13:11 | 47.50083 | -137.13903 | 30375 ft | 498 kts | 307° |
| 2026-04-25 13:11 | 47.54466 | -137.21851 | 30376 ft | 499 kts | 307° |
| 2026-04-25 13:12 | 47.58815 | -137.29761 | 30381 ft | 499 kts | 307° |
| 2026-04-25 13:12 | 47.62486 | -137.36457 | 30369 ft | 499 kts | 307° |
| 2026-04-25 13:13 | 47.67589 | -137.45791 | 30715 ft | 502 kts | 306° |
| 2026-04-25 13:13 | 47.69778 | -137.49804 | 31066 ft | 499 kts | 306° |
| 2026-04-25 13:13 | 47.71957 | -137.53804 | 31429 ft | 497 kts | 306° |
| 2026-04-25 13:14 | 47.74123 | -137.57786 | 31784 ft | 495 kts | 306° |
| 2026-04-25 13:14 | 47.76258 | -137.61717 | 32087 ft | 494 kts | 306° |
| 2026-04-25 13:14 | 47.78415 | -137.65696 | 32306 ft | 495 kts | 306° |
| 2026-04-25 13:14 | 47.80578 | -137.69693 | 32346 ft | 497 kts | 306° |
| 2026-04-25 13:15 | 47.84896 | -137.77687 | 32381 ft | 494 kts | 306° |
| 2026-04-25 13:15 | 47.89184 | -137.85648 | 32393 ft | 491 kts | 306° |
| 2026-04-25 13:16 | 47.93419 | -137.93533 | 32398 ft | 490 kts | 306° |
| 2026-04-25 13:16 | 47.97670 | -138.01474 | 32400 ft | 489 kts | 307° |
| 2026-04-25 13:17 | 48.01912 | -138.09419 | 32405 ft | 490 kts | 307° |
| 2026-04-25 13:17 | 48.06153 | -138.17386 | 32404 ft | 490 kts | 307° |
| 2026-04-25 13:18 | 48.10390 | -138.25370 | 32404 ft | 490 kts | 307° |
| 2026-04-25 13:18 | 48.14593 | -138.33312 | 32408 ft | 490 kts | 307° |
| 2026-04-25 13:19 | 48.18815 | -138.41313 | 32409 ft | 489 kts | 307° |
| 2026-04-25 13:19 | 48.21630 | -138.46662 | 32407 ft | 489 kts | 307° |
| 2026-04-25 13:20 | 48.27220 | -138.57314 | 32410 ft | 487 kts | 307° |
| 2026-04-25 13:20 | 48.31404 | -138.65315 | 32414 ft | 486 kts | 307° |
| 2026-04-25 13:21 | 48.35546 | -138.73258 | 32413 ft | 486 kts | 307° |
| 2026-04-25 13:21 | 48.39700 | -138.81249 | 32417 ft | 485 kts | 307° |
| 2026-04-25 13:22 | 48.43849 | -138.89252 | 32414 ft | 484 kts | 307° |
| 2026-04-25 13:23 | 48.50051 | -139.01262 | 32416 ft | 484 kts | 307° |
| 2026-04-25 13:23 | 48.54148 | -139.09226 | 32415 ft | 484 kts | 307° |
| 2026-04-25 13:24 | 48.58269 | -139.17258 | 32417 ft | 484 kts | 307° |
| 2026-04-25 13:24 | 48.62385 | -139.25307 | 32414 ft | 484 kts | 307° |
| 2026-04-25 13:25 | 48.66497 | -139.33370 | 32418 ft | 484 kts | 307° |
| 2026-04-25 13:25 | 48.70597 | -139.41436 | 32416 ft | 484 kts | 306° |
| 2026-04-25 13:26 | 48.74671 | -139.49473 | 32416 ft | 484 kts | 306° |
| 2026-04-25 13:26 | 48.78764 | -139.57574 | 32414 ft | 484 kts | 306° |
| 2026-04-25 13:27 | 48.82856 | -139.65696 | 32416 ft | 484 kts | 306° |
| 2026-04-25 13:27 | 48.86942 | -139.73830 | 32417 ft | 485 kts | 306° |
| 2026-04-25 13:28 | 48.90997 | -139.81929 | 32416 ft | 485 kts | 306° |
| 2026-04-25 13:28 | 48.95074 | -139.90096 | 32415 ft | 485 kts | 306° |
| 2026-04-25 13:29 | 48.99152 | -139.98286 | 32413 ft | 485 kts | 306° |
| 2026-04-25 13:29 | 49.03553 | -140.06094 | 32429 ft | 487 kts | 311° |
| 2026-04-25 13:30 | 49.10437 | -140.17406 | 32416 ft | 488 kts | 311° |
| 2026-04-25 13:31 | 49.17334 | -140.28865 | 32413 ft | 489 kts | 310° |
| 2026-04-25 13:31 | 49.21916 | -140.36553 | 32417 ft | 490 kts | 310° |
| 2026-04-25 13:32 | 49.26501 | -140.44274 | 32412 ft | 490 kts | 310° |
| 2026-04-25 13:32 | 49.31055 | -140.51964 | 32411 ft | 491 kts | 310° |
| 2026-04-25 13:33 | 49.35647 | -140.59738 | 32413 ft | 492 kts | 310° |
| 2026-04-25 13:33 | 49.40239 | -140.67537 | 32414 ft | 493 kts | 310° |
| 2026-04-25 13:34 | 49.44833 | -140.75361 | 32409 ft | 494 kts | 310° |
| 2026-04-25 13:34 | 49.49431 | -140.83217 | 32413 ft | 494 kts | 310° |
| 2026-04-25 13:35 | 49.53998 | -140.91042 | 32407 ft | 495 kts | 309° |
| 2026-04-25 13:35 | 49.58598 | -140.98949 | 32398 ft | 496 kts | 309° |
| 2026-04-25 13:36 | 49.63197 | -141.06877 | 32403 ft | 496 kts | 309° |
| 2026-04-25 13:36 | 49.67794 | -141.14827 | 32398 ft | 497 kts | 309° |
| 2026-04-25 13:37 | 49.72358 | -141.22745 | 32402 ft | 497 kts | 309° |
| 2026-04-25 13:37 | 49.76949 | -141.30733 | 32394 ft | 497 kts | 309° |
| 2026-04-25 13:38 | 49.81543 | -141.38751 | 32398 ft | 498 kts | 309° |
| 2026-04-25 13:38 | 49.86132 | -141.46787 | 32405 ft | 498 kts | 308° |
| 2026-04-25 13:39 | 49.90689 | -141.54790 | 32398 ft | 498 kts | 308° |
| 2026-04-25 13:39 | 49.95273 | -141.62866 | 32396 ft | 499 kts | 308° |
| 2026-04-25 13:40 | 49.99858 | -141.70968 | 32396 ft | 500 kts | 308° |
| 2026-04-25 13:40 | 50.04445 | -141.79101 | 32392 ft | 500 kts | 308° |
| 2026-04-25 13:41 | 50.09031 | -141.87258 | 32390 ft | 501 kts | 308° |
| 2026-04-25 13:41 | 50.13587 | -141.95386 | 32390 ft | 502 kts | 308° |
| 2026-04-25 13:42 | 50.18176 | -142.03599 | 32388 ft | 502 kts | 308° |
| 2026-04-25 13:42 | 50.22766 | -142.11839 | 32389 ft | 503 kts | 307° |
| 2026-04-25 13:43 | 50.27356 | -142.20107 | 32389 ft | 504 kts | 307° |
| 2026-04-25 13:43 | 50.31912 | -142.28339 | 32384 ft | 504 kts | 307° |
| 2026-04-25 13:44 | 50.36498 | -142.36653 | 32383 ft | 505 kts | 307° |
| 2026-04-25 13:44 | 50.41087 | -142.44997 | 32377 ft | 505 kts | 307° |
| 2026-04-25 13:45 | 50.45672 | -142.53365 | 32388 ft | 506 kts | 307° |
| 2026-04-25 13:45 | 50.50231 | -142.61710 | 32378 ft | 507 kts | 307° |
| 2026-04-25 13:46 | 50.54809 | -142.70115 | 32372 ft | 507 kts | 306° |
| 2026-04-25 13:46 | 50.59386 | -142.78547 | 32371 ft | 507 kts | 306° |
| 2026-04-25 13:47 | 50.63959 | -142.87002 | 32371 ft | 507 kts | 306° |
| 2026-04-25 13:47 | 50.68497 | -142.95416 | 32365 ft | 507 kts | 306° |
| 2026-04-25 13:48 | 50.73055 | -143.03899 | 32364 ft | 507 kts | 306° |
| 2026-04-25 13:48 | 50.77619 | -143.12419 | 32375 ft | 509 kts | 306° |
| 2026-04-25 13:49 | 50.82161 | -143.20927 | 32360 ft | 510 kts | 306° |
| 2026-04-25 13:49 | 50.86722 | -143.29496 | 32361 ft | 509 kts | 306° |
| 2026-04-25 13:50 | 50.91278 | -143.38086 | 32349 ft | 509 kts | 305° |
| 2026-04-25 13:50 | 50.95823 | -143.46684 | 32357 ft | 509 kts | 305° |
| 2026-04-25 13:51 | 51.00364 | -143.55305 | 32357 ft | 510 kts | 305° |
| 2026-04-25 13:51 | 51.04876 | -143.63899 | 32339 ft | 510 kts | 305° |
| 2026-04-25 13:52 | 51.08645 | -143.71097 | 32345 ft | 509 kts | 305° |
| 2026-04-25 13:52 | 51.13162 | -143.79751 | 32340 ft | 508 kts | 305° |
| 2026-04-25 13:53 | 51.17669 | -143.88417 | 32344 ft | 508 kts | 305° |
| 2026-04-25 13:53 | 51.22896 | -143.98505 | 32336 ft | 508 kts | 305° |
| 2026-04-25 13:54 | 51.26632 | -144.05739 | 32332 ft | 508 kts | 305° |
| 2026-04-25 13:54 | 51.31115 | -144.14447 | 32331 ft | 507 kts | 305° |
| 2026-04-25 13:55 | 51.35594 | -144.23176 | 32324 ft | 507 kts | 304° |
| 2026-04-25 13:55 | 51.40061 | -144.31911 | 32323 ft | 507 kts | 304° |
| 2026-04-25 13:56 | 51.44513 | -144.40647 | 32324 ft | 506 kts | 304° |
| 2026-04-25 13:56 | 51.48928 | -144.49340 | 32326 ft | 505 kts | 304° |
| 2026-04-25 13:57 | 51.53360 | -144.58095 | 32317 ft | 505 kts | 304° |
| 2026-04-25 13:57 | 51.57776 | -144.66849 | 32315 ft | 504 kts | 304° |
| 2026-04-25 13:58 | 51.62175 | -144.75599 | 32315 ft | 503 kts | 304° |
| 2026-04-25 13:58 | 51.66528 | -144.84288 | 32310 ft | 501 kts | 304° |
| 2026-04-25 13:59 | 51.70895 | -144.93034 | 32311 ft | 500 kts | 304° |
| 2026-04-25 13:59 | 51.75238 | -145.01762 | 32312 ft | 498 kts | 304° |
| 2026-04-25 14:00 | 51.79564 | -145.10484 | 32305 ft | 497 kts | 304° |
| 2026-04-25 14:00 | 51.83838 | -145.19132 | 32309 ft | 495 kts | 304° |
| 2026-04-25 14:01 | 51.88125 | -145.27835 | 32314 ft | 494 kts | 304° |
| 2026-04-25 14:01 | 51.92398 | -145.36542 | 32321 ft | 493 kts | 304° |
| 2026-04-25 14:02 | 51.96656 | -145.45246 | 32308 ft | 492 kts | 304° |
| 2026-04-25 14:02 | 52.00876 | -145.53902 | 32307 ft | 492 kts | 304° |
| 2026-04-25 14:03 | 52.05114 | -145.62625 | 32311 ft | 492 kts | 304° |
| 2026-04-25 14:03 | 52.09342 | -145.71356 | 32311 ft | 491 kts | 304° |
| 2026-04-25 14:04 | 52.13556 | -145.80087 | 32309 ft | 491 kts | 304° |
| 2026-04-25 14:04 | 52.17764 | -145.88837 | 32307 ft | 490 kts | 304° |
| 2026-04-25 14:05 | 52.21929 | -145.97526 | 32303 ft | 490 kts | 304° |
| 2026-04-25 14:05 | 52.26113 | -146.06285 | 32308 ft | 489 kts | 304° |
| 2026-04-25 14:06 | 52.30286 | -146.15053 | 32315 ft | 489 kts | 304° |
| 2026-04-25 14:06 | 52.34456 | -146.23842 | 32305 ft | 489 kts | 304° |
| 2026-04-25 14:07 | 52.38613 | -146.32636 | 32303 ft | 489 kts | 304° |
| 2026-04-25 14:07 | 52.42739 | -146.41394 | 32304 ft | 489 kts | 303° |
| 2026-04-25 14:08 | 52.46881 | -146.50217 | 32317 ft | 489 kts | 303° |
| 2026-04-25 14:08 | 52.51021 | -146.59065 | 32306 ft | 489 kts | 303° |
| 2026-04-25 14:09 | 52.55155 | -146.67931 | 32305 ft | 489 kts | 303° |
| 2026-04-25 14:09 | 52.59254 | -146.76753 | 32292 ft | 489 kts | 303° |
| 2026-04-25 14:10 | 52.63373 | -146.85649 | 32295 ft | 489 kts | 303° |
| 2026-04-25 14:10 | 52.67491 | -146.94575 | 32303 ft | 489 kts | 303° |
| 2026-04-25 14:11 | 52.71608 | -147.03529 | 32300 ft | 490 kts | 303° |
| 2026-04-25 14:11 | 52.75722 | -147.12508 | 32298 ft | 491 kts | 303° |
| 2026-04-25 14:12 | 52.79806 | -147.21455 | 32295 ft | 491 kts | 303° |
| 2026-04-25 14:12 | 52.83912 | -147.30480 | 32294 ft | 492 kts | 302° |
| 2026-04-25 14:13 | 52.88020 | -147.39543 | 32293 ft | 492 kts | 302° |
| 2026-04-25 14:13 | 52.92120 | -147.48619 | 32295 ft | 492 kts | 302° |
| 2026-04-25 14:14 | 52.96185 | -147.57652 | 32292 ft | 492 kts | 302° |
| 2026-04-25 14:14 | 53.00278 | -147.66778 | 32287 ft | 492 kts | 302° |
| 2026-04-25 14:15 | 53.04358 | -147.75907 | 32282 ft | 492 kts | 302° |
| 2026-04-25 14:15 | 53.08427 | -147.85046 | 32280 ft | 492 kts | 302° |
| 2026-04-25 14:16 | 53.12459 | -147.94134 | 32282 ft | 491 kts | 302° |
| 2026-04-25 14:16 | 53.16512 | -148.03303 | 32279 ft | 491 kts | 302° |
| 2026-04-25 14:17 | 53.20550 | -148.12471 | 32278 ft | 491 kts | 302° |
| 2026-04-25 14:17 | 53.24580 | -148.21654 | 32277 ft | 490 kts | 302° |
| 2026-04-25 14:18 | 53.28601 | -148.30850 | 32274 ft | 490 kts | 302° |
| 2026-04-25 14:18 | 53.32587 | -148.39999 | 32272 ft | 490 kts | 302° |
| 2026-04-25 14:19 | 53.36588 | -148.49216 | 32269 ft | 489 kts | 302° |
| 2026-04-25 14:19 | 53.40579 | -148.58444 | 32267 ft | 489 kts | 301° |
| 2026-04-25 14:20 | 53.44567 | -148.67698 | 32269 ft | 489 kts | 301° |
| 2026-04-25 14:20 | 53.48518 | -148.76902 | 32263 ft | 489 kts | 301° |
| 2026-04-25 14:21 | 53.52489 | -148.86183 | 32259 ft | 489 kts | 301° |
| 2026-04-25 14:21 | 53.56448 | -148.95472 | 32259 ft | 489 kts | 301° |
| 2026-04-25 14:22 | 53.60403 | -149.04788 | 32247 ft | 489 kts | 301° |
| 2026-04-25 14:22 | 53.64322 | -149.14050 | 32253 ft | 489 kts | 301° |
| 2026-04-25 14:23 | 53.68258 | -149.23389 | 32249 ft | 489 kts | 301° |
| 2026-04-25 14:23 | 53.72192 | -149.32757 | 32250 ft | 489 kts | 301° |
| 2026-04-25 14:24 | 53.76114 | -149.42132 | 32240 ft | 489 kts | 301° |
| 2026-04-25 14:24 | 53.80031 | -149.51529 | 32252 ft | 489 kts | 301° |
| 2026-04-25 14:25 | 53.83918 | -149.60889 | 32245 ft | 489 kts | 300° |
| 2026-04-25 14:25 | 53.87820 | -149.70322 | 32244 ft | 489 kts | 300° |
| 2026-04-25 14:26 | 53.91718 | -149.79780 | 32242 ft | 489 kts | 300° |
| 2026-04-25 14:26 | 53.95608 | -149.89257 | 32236 ft | 489 kts | 300° |
| 2026-04-25 14:27 | 53.99491 | -149.98745 | 32230 ft | 489 kts | 300° |
| 2026-04-25 14:27 | 54.03199 | -150.08318 | 32234 ft | 487 kts | 297° |
| 2026-04-25 14:28 | 54.06729 | -150.18161 | 32235 ft | 487 kts | 296° |
| 2026-04-25 14:28 | 54.10241 | -150.28009 | 32226 ft | 487 kts | 296° |
| 2026-04-25 14:29 | 54.13759 | -150.37794 | 32212 ft | 487 kts | 297° |
| 2026-04-25 14:29 | 54.17306 | -150.47631 | 32209 ft | 487 kts | 297° |
| 2026-04-25 14:30 | 54.20849 | -150.57484 | 32211 ft | 487 kts | 297° |
| 2026-04-25 14:30 | 54.26144 | -150.72294 | 32208 ft | 487 kts | 296° |
| 2026-04-25 14:31 | 54.29642 | -150.82130 | 32202 ft | 487 kts | 296° |
| 2026-04-25 14:31 | 54.33150 | -150.92035 | 32202 ft | 487 kts | 296° |
| 2026-04-25 14:32 | 54.36652 | -151.01963 | 32195 ft | 486 kts | 296° |
| 2026-04-25 14:32 | 54.40143 | -151.11900 | 32187 ft | 486 kts | 296° |
| 2026-04-25 14:33 | 54.43603 | -151.21787 | 32184 ft | 486 kts | 296° |
| 2026-04-25 14:33 | 54.47075 | -151.31748 | 32179 ft | 486 kts | 296° |
| 2026-04-25 14:34 | 54.50540 | -151.41733 | 32176 ft | 486 kts | 296° |
| 2026-04-25 14:34 | 54.53997 | -151.51733 | 32174 ft | 486 kts | 296° |
| 2026-04-25 14:35 | 54.57450 | -151.61762 | 32164 ft | 486 kts | 296° |
| 2026-04-25 14:35 | 54.60864 | -151.71719 | 32159 ft | 486 kts | 296° |
| 2026-04-25 14:36 | 54.64292 | -151.81757 | 32159 ft | 485 kts | 296° |
| 2026-04-25 14:36 | 54.67712 | -151.91814 | 32146 ft | 485 kts | 296° |
| 2026-04-25 14:37 | 54.71095 | -152.01804 | 32147 ft | 485 kts | 296° |
| 2026-04-25 14:37 | 54.74489 | -152.11866 | 32143 ft | 484 kts | 296° |
| 2026-04-25 14:38 | 54.77873 | -152.21941 | 32136 ft | 484 kts | 296° |
| 2026-04-25 14:38 | 54.81250 | -152.32035 | 32129 ft | 484 kts | 296° |
| 2026-04-25 14:39 | 54.84613 | -152.42130 | 32125 ft | 484 kts | 296° |
| 2026-04-25 14:39 | 54.87951 | -152.52193 | 32122 ft | 484 kts | 296° |
| 2026-04-25 14:40 | 54.91300 | -152.62331 | 32105 ft | 484 kts | 296° |
| 2026-04-25 14:40 | 54.94642 | -152.72487 | 32099 ft | 484 kts | 296° |
| 2026-04-25 14:41 | 54.97972 | -152.82650 | 32103 ft | 483 kts | 296° |
| 2026-04-25 14:41 | 55.01265 | -152.92744 | 32101 ft | 483 kts | 296° |
| 2026-04-25 14:42 | 55.04036 | -153.01273 | 32093 ft | 482 kts | 296° |
| 2026-04-25 14:42 | 55.07868 | -153.13113 | 32087 ft | 482 kts | 295° |
| 2026-04-25 14:43 | 55.11152 | -153.23307 | 32090 ft | 482 kts | 295° |
| 2026-04-25 14:43 | 55.14430 | -153.33526 | 32078 ft | 482 kts | 295° |
| 2026-04-25 14:44 | 55.17673 | -153.43679 | 32071 ft | 481 kts | 295° |
| 2026-04-25 14:44 | 55.20928 | -153.53913 | 32064 ft | 481 kts | 295° |
| 2026-04-25 14:45 | 55.24174 | -153.64161 | 32061 ft | 481 kts | 295° |
| 2026-04-25 14:45 | 55.27407 | -153.74416 | 32053 ft | 481 kts | 295° |
| 2026-04-25 14:46 | 55.30609 | -153.84613 | 32049 ft | 480 kts | 295° |
| 2026-04-25 14:46 | 55.33824 | -153.94896 | 32040 ft | 480 kts | 295° |
| 2026-04-25 14:47 | 55.36488 | -154.03450 | 32034 ft | 480 kts | 295° |
| 2026-04-25 14:47 | 55.40224 | -154.15496 | 32031 ft | 480 kts | 295° |
| 2026-04-25 14:48 | 55.43406 | -154.25806 | 32023 ft | 479 kts | 295° |
| 2026-04-25 14:48 | 55.46558 | -154.36062 | 32022 ft | 479 kts | 295° |
| 2026-04-25 14:49 | 55.49719 | -154.46394 | 32007 ft | 479 kts | 295° |
| 2026-04-25 14:49 | 55.52871 | -154.56741 | 32006 ft | 478 kts | 295° |
| 2026-04-25 14:50 | 55.56011 | -154.67090 | 32003 ft | 478 kts | 295° |
| 2026-04-25 14:50 | 55.59118 | -154.77382 | 31995 ft | 478 kts | 295° |
| 2026-04-25 14:51 | 55.62239 | -154.87762 | 31991 ft | 477 kts | 295° |
| 2026-04-25 14:51 | 55.65346 | -154.98139 | 31987 ft | 477 kts | 295° |
| 2026-04-25 14:52 | 55.68445 | -155.08536 | 31986 ft | 477 kts | 295° |
| 2026-04-25 14:52 | 55.71010 | -155.17178 | 31972 ft | 477 kts | 295° |
| 2026-04-25 14:53 | 55.74588 | -155.29288 | 31972 ft | 477 kts | 294° |
| 2026-04-25 14:53 | 55.77656 | -155.39720 | 31967 ft | 477 kts | 294° |
| 2026-04-25 14:54 | 55.80717 | -155.50175 | 31965 ft | 477 kts | 294° |
| 2026-04-25 14:54 | 55.83769 | -155.60646 | 31956 ft | 477 kts | 294° |
| 2026-04-25 14:55 | 55.86813 | -155.71134 | 31956 ft | 477 kts | 294° |
| 2026-04-25 14:55 | 55.89826 | -155.81564 | 31950 ft | 477 kts | 294° |
| 2026-04-25 14:56 | 55.92853 | -155.92088 | 31944 ft | 477 kts | 294° |
| 2026-04-25 14:56 | 55.95866 | -156.02616 | 31939 ft | 477 kts | 294° |
| 2026-04-25 14:57 | 55.98873 | -156.13165 | 31938 ft | 476 kts | 294° |
| 2026-04-25 14:57 | 56.01848 | -156.23651 | 31932 ft | 476 kts | 294° |
| 2026-04-25 14:58 | 56.04830 | -156.34213 | 31939 ft | 476 kts | 294° |
| 2026-04-25 14:58 | 56.07806 | -156.44796 | 31931 ft | 476 kts | 294° |
| 2026-04-25 14:59 | 56.10770 | -156.55390 | 31932 ft | 476 kts | 294° |
| 2026-04-25 14:59 | 56.13705 | -156.65928 | 31919 ft | 475 kts | 294° |
| 2026-04-25 15:00 | 56.16643 | -156.76522 | 31919 ft | 474 kts | 294° |
| 2026-04-25 15:00 | 56.19571 | -156.87132 | 31919 ft | 474 kts | 294° |
| 2026-04-25 15:01 | 56.22488 | -156.97749 | 31922 ft | 474 kts | 294° |
| 2026-04-25 15:01 | 56.25393 | -157.08375 | 31918 ft | 474 kts | 294° |
| 2026-04-25 15:02 | 56.28270 | -157.18944 | 31923 ft | 474 kts | 294° |
| 2026-04-25 15:02 | 56.31159 | -157.29609 | 31924 ft | 474 kts | 294° |
| 2026-04-25 15:03 | 56.34041 | -157.40299 | 31919 ft | 475 kts | 294° |
| 2026-04-25 15:03 | 56.36919 | -157.51019 | 31911 ft | 474 kts | 294° |
| 2026-04-25 15:04 | 56.39758 | -157.61647 | 31917 ft | 473 kts | 294° |
| 2026-04-25 15:04 | 56.42599 | -157.72335 | 31918 ft | 472 kts | 294° |
| 2026-04-25 15:05 | 56.45428 | -157.83026 | 31928 ft | 471 kts | 294° |
| 2026-04-25 15:06 | 56.49655 | -157.99099 | 31934 ft | 472 kts | 294° |
| 2026-04-25 15:06 | 56.52446 | -158.09772 | 31930 ft | 472 kts | 293° |
| 2026-04-25 15:07 | 56.55248 | -158.20536 | 31935 ft | 472 kts | 293° |
| 2026-04-25 15:07 | 56.58036 | -158.31303 | 31947 ft | 471 kts | 293° |
| 2026-04-25 15:08 | 56.60811 | -158.42067 | 31945 ft | 471 kts | 293° |
| 2026-04-25 15:08 | 56.63558 | -158.52777 | 31954 ft | 471 kts | 293° |
| 2026-04-25 15:09 | 56.66311 | -158.63562 | 31963 ft | 470 kts | 293° |
| 2026-04-25 15:09 | 56.70416 | -158.79744 | 31959 ft | 470 kts | 293° |
| 2026-04-25 15:10 | 56.73139 | -158.90542 | 31952 ft | 469 kts | 293° |
| 2026-04-25 15:11 | 56.77187 | -159.06691 | 31936 ft | 469 kts | 293° |
| 2026-04-25 15:11 | 56.79882 | -159.17509 | 31914 ft | 469 kts | 292° |
| 2026-04-25 15:12 | 56.83889 | -159.33690 | 31912 ft | 468 kts | 292° |
| 2026-04-25 15:12 | 56.85672 | -159.40929 | 31925 ft | 467 kts | 292° |
| 2026-04-25 15:13 | 56.90527 | -159.60765 | 31918 ft | 466 kts | 292° |
| 2026-04-25 15:14 | 56.93160 | -159.71598 | 31920 ft | 466 kts | 292° |
| 2026-04-25 15:14 | 56.95765 | -159.82373 | 31922 ft | 465 kts | 292° |
| 2026-04-25 15:15 | 56.98375 | -159.93211 | 31937 ft | 465 kts | 292° |
| 2026-04-25 15:15 | 57.00720 | -160.04226 | 31923 ft | 463 kts | 285° |
| 2026-04-25 15:16 | 57.02426 | -160.15606 | 31922 ft | 462 kts | 284° |
| 2026-04-25 15:16 | 57.04929 | -160.32617 | 31930 ft | 462 kts | 284° |
| 2026-04-25 15:17 | 57.07459 | -160.49697 | 31932 ft | 461 kts | 284° |
| 2026-04-25 15:18 | 57.09136 | -160.61064 | 31938 ft | 461 kts | 284° |
| 2026-04-25 15:18 | 57.11617 | -160.78038 | 31937 ft | 459 kts | 284° |
| 2026-04-25 15:19 | 57.12718 | -160.85631 | 31942 ft | 459 kts | 284° |
| 2026-04-25 15:19 | 57.14892 | -161.00735 | 31943 ft | 458 kts | 283° |
| 2026-04-25 15:20 | 57.16510 | -161.12068 | 31949 ft | 457 kts | 283° |
| 2026-04-25 15:20 | 57.18105 | -161.23323 | 31950 ft | 457 kts | 283° |
| 2026-04-25 15:21 | 57.19700 | -161.34654 | 31950 ft | 456 kts | 283° |
| 2026-04-25 15:21 | 57.21282 | -161.45979 | 31955 ft | 456 kts | 283° |
| 2026-04-25 15:22 | 57.22851 | -161.57294 | 31957 ft | 455 kts | 283° |
| 2026-04-25 15:22 | 57.24398 | -161.68531 | 31956 ft | 454 kts | 283° |
| 2026-04-25 15:23 | 57.25943 | -161.79838 | 31958 ft | 454 kts | 283° |
| 2026-04-25 15:23 | 57.27478 | -161.91152 | 31964 ft | 454 kts | 283° |
| 2026-04-25 15:24 | 57.29000 | -162.02459 | 31966 ft | 453 kts | 282° |
| 2026-04-25 15:24 | 57.30257 | -162.11861 | 31964 ft | 453 kts | 282° |
| 2026-04-25 15:25 | 57.32002 | -162.25009 | 31967 ft | 453 kts | 282° |
| 2026-04-25 15:25 | 57.33493 | -162.36338 | 31964 ft | 453 kts | 282° |
| 2026-04-25 15:26 | 57.34972 | -162.47661 | 31970 ft | 453 kts | 282° |
| 2026-04-25 15:26 | 57.36442 | -162.59001 | 31966 ft | 453 kts | 282° |
| 2026-04-25 15:27 | 57.37891 | -162.70265 | 31968 ft | 452 kts | 282° |
| 2026-04-25 15:28 | 57.40058 | -162.87280 | 31968 ft | 452 kts | 282° |
| 2026-04-25 15:28 | 57.41488 | -162.98623 | 31971 ft | 452 kts | 281° |
| 2026-04-25 15:29 | 57.42899 | -163.09899 | 31966 ft | 451 kts | 281° |
| 2026-04-25 15:29 | 57.44307 | -163.21243 | 31968 ft | 451 kts | 281° |
| 2026-04-25 15:30 | 57.45706 | -163.32600 | 31968 ft | 451 kts | 281° |
| 2026-04-25 15:30 | 57.47094 | -163.43964 | 31961 ft | 451 kts | 281° |
| 2026-04-25 15:31 | 57.48470 | -163.55322 | 31968 ft | 451 kts | 281° |
| 2026-04-25 15:31 | 57.49826 | -163.66609 | 31968 ft | 451 kts | 281° |
| 2026-04-25 15:32 | 57.51183 | -163.77988 | 31966 ft | 451 kts | 281° |
| 2026-04-25 15:32 | 57.51455 | -163.80281 | 31967 ft | 451 kts | 281° |